createdAt,value
2022-08-20T00:00:40.843Z,9.32
2022-08-20T00:03:10.387Z,8.75
2022-08-20T00:05:43.310Z,7.88
2022-08-20T00:08:10.702Z,9.90
2022-08-20T00:10:39.975Z,8.25
2022-08-20T00:13:10.746Z,7.88
2022-08-20T00:15:42.885Z,9.65
2022-08-20T00:18:12.713Z,8.15
2022-08-20T00:20:45.112Z,6.82
2022-08-20T00:23:12.258Z,6.88
2022-08-20T00:25:39.607Z,6.95
2022-08-20T00:28:07.657Z,6.60
2022-08-20T00:30:36.471Z,6.78
2022-08-20T00:33:08.364Z,6.88
2022-08-20T00:35:40.142Z,5.55
2022-08-20T00:38:06.829Z,7.72
2022-08-20T00:40:41.447Z,6.22
2022-08-20T00:43:28.979Z,6.47
2022-08-20T00:45:56.484Z,6.75
2022-08-20T00:48:26.482Z,8.13
2022-08-20T00:50:56.681Z,8.00
2022-08-20T00:53:26.003Z,6.07
2022-08-20T00:55:52.973Z,7.55
2022-08-20T00:58:19.703Z,5.55
2022-08-20T01:00:47.679Z,6.22
2022-08-20T01:03:17.790Z,8.00
2022-08-20T01:05:48.441Z,8.13
2022-08-20T01:08:18.420Z,6.37
2022-08-20T01:10:48.840Z,7.03
2022-08-20T01:13:22.139Z,6.03
2022-08-20T01:15:51.732Z,6.95
2022-08-20T01:18:24.569Z,7.35
2022-08-20T01:20:55.556Z,6.93
2022-08-20T01:23:45.001Z,6.95
2022-08-20T01:26:36.007Z,6.47
2022-08-20T01:29:08.326Z,6.43
2022-08-20T01:31:38.744Z,7.40
2022-08-20T01:34:11.019Z,6.45
2022-08-20T01:36:46.105Z,7.13
2022-08-20T01:39:17.332Z,6.50
2022-08-20T01:42:00.911Z,8.73
2022-08-20T01:44:28.201Z,6.43
2022-08-20T01:47:07.876Z,7.13
2022-08-20T01:49:35.824Z,6.50
2022-08-20T01:52:08.769Z,6.57
2022-08-20T01:54:35.953Z,6.40
2022-08-20T01:57:10.459Z,6.32
2022-08-20T01:59:37.506Z,7.18
2022-08-20T02:02:07.119Z,7.85
2022-08-20T02:04:34.778Z,6.60
2022-08-20T02:07:04.362Z,7.00
2022-08-20T02:09:39.297Z,6.90
2022-08-20T02:12:08.892Z,7.40
2022-08-20T02:14:44.683Z,6.35
2022-08-20T02:17:13.774Z,6.72
2022-08-20T02:19:52.804Z,6.57
2022-08-20T02:22:29.672Z,6.55
2022-08-20T02:24:56.419Z,6.68
2022-08-20T02:27:23.749Z,6.72
2022-08-20T02:29:52.411Z,6.97
2022-08-20T02:32:24.717Z,6.85
2022-08-20T02:35:03.283Z,6.53
2022-08-20T02:37:30.402Z,8.15
2022-08-20T02:39:57.117Z,7.80
2022-08-20T02:42:23.966Z,6.78
2022-08-20T02:44:50.596Z,7.93
2022-08-20T02:47:17.419Z,7.22
2022-08-20T02:49:45.471Z,8.52
2022-08-20T02:52:12.195Z,5.93
2022-08-20T02:54:39.175Z,7.22
2022-08-20T02:57:06.104Z,6.38
2022-08-20T02:59:33.651Z,7.43
2022-08-20T03:02:01.365Z,7.13
2022-08-20T03:04:31.554Z,8.63
2022-08-20T03:06:59.578Z,7.60
2022-08-20T03:09:26.684Z,7.75
2022-08-20T03:11:53.815Z,8.02
2022-08-20T03:14:20.632Z,7.80
2022-08-20T03:16:47.331Z,6.20
2022-08-20T03:19:14.074Z,9.80
2022-08-20T03:21:40.984Z,8.20
2022-08-20T03:24:07.910Z,7.10
2022-08-20T03:26:35.543Z,7.43
2022-08-20T03:29:02.549Z,9.38
2022-08-20T03:31:29.808Z,8.45
2022-08-20T03:33:56.657Z,8.85
2022-08-20T03:36:28.089Z,7.68
2022-08-20T03:39:01.049Z,8.27
2022-08-20T03:41:28.740Z,8.75
2022-08-20T03:43:55.892Z,7.95
2022-08-20T03:46:23.804Z,7.90
2022-08-20T03:49:00.569Z,8.13
2022-08-20T03:51:31.449Z,7.95
2022-08-20T03:53:58.549Z,10.13
2022-08-20T03:56:26.060Z,10.07
2022-08-20T03:58:54.204Z,8.13
2022-08-20T04:01:44.491Z,8.48
2022-08-20T04:04:12.391Z,8.43
2022-08-20T04:06:40.052Z,9.68
2022-08-20T04:09:07.163Z,8.25
2022-08-20T04:11:37.368Z,8.32
2022-08-20T04:14:04.123Z,10.10
2022-08-20T04:16:33.523Z,8.82
2022-08-20T04:19:02.324Z,9.32
2022-08-20T04:21:32.990Z,8.30
2022-08-20T04:24:00.974Z,9.95
2022-08-20T04:26:27.939Z,8.05
2022-08-20T04:28:55.776Z,8.80
2022-08-20T04:31:25.362Z,8.43
2022-08-20T04:33:52.410Z,9.55
2022-08-20T04:36:19.037Z,8.10
2022-08-20T04:38:49.920Z,8.07
2022-08-20T04:41:23.614Z,8.77
2022-08-20T04:43:55.152Z,10.32
2022-08-20T04:46:26.093Z,8.77
2022-08-20T04:48:53.393Z,10.27
2022-08-20T04:51:23.025Z,9.95
2022-08-20T04:53:53.124Z,9.02
2022-08-20T04:56:28.269Z,10.20
2022-08-20T04:58:57.715Z,10.30
2022-08-20T05:01:26.246Z,10.52
2022-08-20T05:03:54.933Z,10.85
2022-08-20T05:06:25.548Z,9.07
2022-08-20T05:08:54.583Z,10.43
2022-08-20T05:11:34.277Z,9.75
2022-08-20T05:14:08.891Z,9.40
2022-08-20T05:16:38.221Z,10.02
2022-08-20T05:19:06.889Z,8.50
2022-08-20T05:21:34.118Z,9.88
2022-08-20T05:24:00.856Z,8.95
2022-08-20T05:26:28.571Z,10.70
2022-08-20T05:28:58.387Z,9.57
2022-08-20T05:31:31.476Z,8.65
2022-08-20T05:33:59.691Z,10.30
2022-08-20T05:36:26.583Z,9.52
2022-08-20T05:38:54.237Z,10.15
2022-08-20T05:41:28.932Z,9.75
2022-08-20T05:44:03.354Z,10.15
2022-08-20T05:46:31.837Z,9.02
2022-08-20T05:49:00.234Z,9.25
2022-08-20T05:51:28.298Z,9.93
2022-08-20T05:53:58.218Z,9.23
2022-08-20T05:56:26.836Z,9.95
2022-08-20T05:58:53.721Z,9.88
2022-08-20T06:01:20.424Z,10.20
2022-08-20T06:04:06.628Z,9.85
2022-08-20T06:06:46.184Z,10.13
2022-08-20T06:09:30.412Z,9.13
2022-08-20T06:12:06.185Z,9.07
2022-08-20T06:14:34.109Z,9.48
2022-08-20T06:17:10.217Z,9.60
2022-08-20T06:19:40.284Z,11.32
2022-08-20T06:22:18.011Z,9.68
2022-08-20T06:24:48.567Z,10.23
2022-08-20T06:27:17.500Z,10.23
2022-08-20T06:29:44.194Z,9.93
2022-08-20T06:32:11.521Z,11.57
2022-08-20T06:34:38.164Z,10.60
2022-08-20T06:37:30.003Z,10.35
2022-08-20T06:40:07.250Z,10.70
2022-08-20T06:42:34.689Z,10.13
2022-08-20T06:45:06.582Z,9.90
2022-08-20T06:47:36.733Z,10.57
2022-08-20T06:50:03.866Z,10.20
2022-08-20T06:52:52.015Z,10.25
2022-08-20T06:55:20.834Z,11.77
2022-08-20T06:58:00.420Z,11.50
2022-08-20T07:00:28.763Z,10.02
2022-08-20T07:02:56.099Z,9.93
2022-08-20T07:05:22.948Z,10.32
2022-08-20T07:07:51.109Z,11.52
2022-08-20T07:10:20.081Z,10.77
2022-08-20T07:12:47.133Z,10.00
2022-08-20T07:15:14.717Z,11.02
2022-08-20T07:17:42.330Z,10.52
2022-08-20T07:20:15.488Z,10.48
2022-08-20T07:22:43.472Z,9.73
2022-08-20T07:25:14.407Z,11.90
2022-08-20T07:27:43.046Z,11.77
2022-08-20T07:30:55.801Z,11.02
2022-08-20T07:33:23.978Z,10.98
2022-08-20T07:35:51.235Z,10.50
2022-08-20T07:38:24.818Z,10.85
2022-08-20T07:40:59.675Z,9.88
2022-08-20T07:43:26.406Z,10.52
2022-08-20T07:45:58.836Z,9.45
2022-08-20T07:48:32.547Z,10.38
2022-08-20T07:51:05.339Z,10.27
2022-08-20T07:53:35.780Z,10.40
2022-08-20T07:56:08.609Z,11.30
2022-08-20T07:58:36.875Z,10.95
2022-08-20T08:01:06.067Z,10.07
2022-08-20T08:03:40.644Z,10.25
2022-08-20T08:06:29.009Z,10.30
2022-08-20T08:09:10.204Z,9.13
2022-08-20T08:11:46.345Z,9.70
2022-08-20T08:14:23.595Z,11.55
2022-08-20T08:16:51.234Z,10.63
2022-08-20T08:19:18.949Z,10.38
2022-08-20T08:21:45.808Z,11.30
2022-08-20T08:24:16.626Z,12.27
2022-08-20T08:26:50.188Z,10.88
2022-08-20T08:29:17.254Z,11.80
2022-08-20T08:31:44.313Z,10.98
2022-08-20T08:34:12.096Z,12.48
2022-08-20T08:36:39.449Z,13.30
2022-08-20T08:39:06.637Z,11.45
2022-08-20T08:41:37.178Z,12.23
2022-08-20T08:44:13.234Z,12.53
2022-08-20T08:46:43.001Z,15.27
2022-08-20T08:49:13.982Z,14.77
2022-08-20T08:51:45.299Z,14.38
2022-08-20T08:54:18.311Z,14.57
2022-08-20T08:56:49.679Z,15.25
2022-08-20T08:59:18.976Z,13.48
2022-08-20T09:01:54.153Z,13.60
2022-08-20T09:04:31.468Z,13.13
2022-08-20T09:06:58.827Z,14.55
2022-08-20T09:09:32.207Z,15.23
2022-08-20T09:12:10.851Z,14.73
2022-08-20T09:14:38.798Z,16.17
2022-08-20T09:17:06.546Z,14.50
2022-08-20T09:19:33.671Z,14.48
2022-08-20T09:22:08.019Z,14.88
2022-08-20T09:24:34.680Z,13.98
2022-08-20T09:27:01.282Z,14.60
2022-08-20T09:29:27.955Z,13.52
2022-08-20T09:32:13.586Z,15.25
2022-08-20T09:34:44.316Z,14.80
2022-08-20T09:37:11.960Z,17.73
2022-08-20T09:39:38.869Z,17.80
2022-08-20T09:42:17.573Z,15.15
2022-08-20T09:44:44.444Z,14.70
2022-08-20T09:47:11.474Z,17.35
2022-08-20T09:49:38.657Z,15.93
2022-08-20T09:52:09.092Z,15.30
2022-08-20T09:54:37.377Z,13.50
2022-08-20T09:57:06.701Z,15.27
2022-08-20T09:59:35.628Z,15.30
2022-08-20T10:02:02.574Z,14.75
2022-08-20T10:04:29.206Z,15.38
2022-08-20T10:06:56.683Z,15.52
2022-08-20T10:09:23.398Z,17.35
2022-08-20T10:11:50.025Z,15.90
2022-08-20T10:14:16.757Z,17.00
2022-08-20T10:16:43.519Z,15.93
2022-08-20T10:19:10.249Z,15.35
2022-08-20T10:21:39.092Z,15.80
2022-08-20T10:24:06.258Z,15.27
2022-08-20T10:26:33.104Z,17.23
2022-08-20T10:28:59.783Z,17.73
2022-08-20T10:31:26.415Z,15.43
2022-08-20T10:33:53.075Z,15.65
2022-08-20T10:36:19.692Z,15.00
2022-08-20T10:38:46.553Z,16.75
2022-08-20T10:41:13.174Z,15.65
2022-08-20T10:43:39.859Z,17.35
2022-08-20T10:46:07.017Z,16.92
2022-08-20T10:48:33.874Z,16.30
2022-08-20T10:51:00.753Z,15.57
2022-08-20T10:53:27.711Z,15.77
2022-08-20T10:55:55.663Z,15.45
2022-08-20T10:58:23.941Z,17.02
2022-08-20T11:00:51.374Z,15.50
2022-08-20T11:03:18.155Z,16.88
2022-08-20T11:05:44.995Z,14.95
2022-08-20T11:08:11.702Z,15.45
2022-08-20T11:10:39.197Z,15.15
2022-08-20T11:13:08.241Z,15.15
2022-08-20T11:15:37.873Z,13.38
2022-08-20T11:18:05.111Z,14.88
2022-08-20T11:20:32.188Z,12.70
2022-08-20T11:22:59.301Z,16.23
2022-08-20T11:25:26.844Z,16.23
2022-08-20T11:27:56.190Z,16.23
2022-08-20T11:30:29.396Z,17.73
2022-08-20T11:32:57.020Z,15.10
2022-08-20T11:35:42.167Z,15.23
2022-08-20T11:38:11.977Z,14.52
2022-08-20T11:40:38.742Z,16.45
2022-08-20T11:43:20.546Z,15.30
2022-08-20T11:45:50.348Z,16.33
2022-08-20T11:48:18.139Z,18.00
2022-08-20T11:50:45.094Z,15.65
2022-08-20T11:53:11.687Z,17.45
2022-08-20T11:55:38.575Z,16.58
2022-08-20T11:58:06.091Z,15.52
2022-08-20T12:00:34.536Z,15.20
2022-08-20T12:03:04.947Z,17.83
2022-08-20T12:05:32.398Z,15.40
2022-08-20T12:08:01.595Z,15.18
2022-08-20T12:10:30.253Z,15.07
2022-08-20T12:12:57.363Z,15.70
2022-08-20T12:15:25.411Z,15.23
2022-08-20T12:17:52.531Z,14.77
2022-08-20T12:20:19.322Z,15.18
2022-08-20T12:22:45.963Z,14.20
2022-08-20T12:25:13.448Z,14.30
2022-08-20T12:27:40.251Z,14.43
2022-08-20T12:30:14.267Z,16.00
2022-08-20T12:32:42.388Z,14.77
2022-08-20T12:35:10.572Z,14.52
2022-08-20T12:37:37.795Z,15.30
2022-08-20T12:40:07.778Z,15.45
2022-08-20T12:42:34.442Z,15.60
2022-08-20T12:45:01.629Z,14.73
2022-08-20T12:47:34.245Z,14.68
2022-08-20T12:50:05.714Z,14.13
2022-08-20T12:52:32.691Z,15.88
2022-08-20T12:55:00.022Z,14.90
2022-08-20T12:57:28.804Z,17.58
2022-08-20T13:00:09.995Z,14.30
2022-08-20T13:05:06.227Z,14.95
2022-08-20T13:07:33.941Z,14.02
2022-08-20T13:10:01.249Z,15.13
2022-08-20T13:12:28.849Z,15.38
2022-08-20T13:14:55.558Z,15.95
2022-08-20T13:17:38.156Z,16.85
2022-08-20T13:20:09.573Z,16.95
2022-08-20T13:22:36.620Z,16.10
2022-08-20T13:25:04.373Z,15.77
2022-08-20T13:27:30.958Z,16.48
2022-08-20T13:29:59.061Z,15.82
2022-08-20T13:32:26.729Z,14.95
2022-08-20T13:34:54.033Z,14.07
2022-08-20T13:37:26.232Z,16.20
2022-08-20T13:39:54.023Z,16.08
2022-08-20T13:42:21.437Z,18.38
2022-08-20T13:44:48.822Z,17.27
2022-08-20T13:47:35.228Z,16.80
2022-08-20T13:50:15.439Z,15.50
2022-08-20T13:52:43.102Z,16.20
2022-08-20T13:55:12.625Z,15.75
2022-08-20T13:57:41.219Z,17.98
2022-08-20T14:00:14.210Z,16.50
2022-08-20T14:02:42.294Z,19.17
2022-08-20T14:05:10.436Z,17.98
2022-08-20T14:07:38.190Z,15.82
2022-08-20T14:10:09.634Z,14.68
2022-08-20T14:12:38.013Z,14.30
2022-08-20T14:15:05.507Z,16.45
2022-08-20T14:17:36.121Z,15.63
2022-08-20T14:20:08.607Z,14.90
2022-08-20T14:22:36.851Z,15.98
2022-08-20T14:25:05.389Z,16.60
2022-08-20T14:27:33.853Z,17.70
2022-08-20T14:30:01.561Z,18.58
2022-08-20T14:32:28.400Z,16.25
2022-08-20T14:34:59.314Z,15.75
2022-08-20T14:37:29.859Z,18.38
2022-08-20T14:39:59.501Z,22.00
2022-08-20T14:42:29.417Z,17.30
2022-08-20T14:44:57.731Z,16.63
2022-08-20T14:47:26.886Z,16.20
2022-08-20T14:49:55.450Z,15.95
2022-08-20T14:52:23.510Z,19.27
2022-08-20T14:54:55.414Z,16.67
2022-08-20T14:57:22.478Z,14.63
2022-08-20T14:59:52.915Z,15.38
2022-08-20T15:02:19.515Z,14.30
2022-08-20T15:04:53.905Z,15.20
2022-08-20T15:07:32.513Z,15.32
2022-08-20T15:10:00.632Z,14.60
2022-08-20T15:12:29.044Z,13.30
2022-08-20T15:14:55.665Z,15.05
2022-08-20T15:17:30.155Z,13.55
2022-08-20T15:19:57.707Z,14.95
2022-08-20T15:22:25.806Z,14.50
2022-08-20T15:24:57.642Z,14.68
2022-08-20T15:27:25.557Z,14.98
2022-08-20T15:29:53.082Z,13.13
2022-08-20T15:32:20.815Z,16.50
2022-08-20T15:34:48.197Z,14.05
2022-08-20T15:37:17.965Z,13.98
2022-08-20T15:39:45.671Z,14.27
2022-08-20T15:42:13.644Z,13.30
2022-08-20T15:44:41.474Z,13.90
2022-08-20T15:47:22.415Z,14.65
2022-08-20T15:49:55.148Z,15.68
2022-08-20T15:52:23.154Z,16.33
2022-08-20T15:54:49.877Z,16.38
2022-08-20T15:58:14.073Z,15.55
2022-08-20T16:00:44.405Z,17.13
2022-08-20T16:03:39.179Z,15.33
2022-08-20T16:06:24.769Z,14.43
2022-08-20T16:09:32.866Z,19.23
2022-08-20T16:12:16.312Z,17.35
2022-08-20T16:14:47.279Z,17.02
2022-08-20T16:17:19.143Z,20.40
2022-08-20T16:20:10.835Z,18.55
2022-08-20T16:22:43.760Z,18.23
2022-08-20T16:25:12.519Z,19.23
2022-08-20T16:27:54.311Z,17.67
2022-08-20T16:30:36.486Z,18.38
2022-08-20T16:33:39.268Z,19.65
2022-08-20T16:36:34.815Z,18.65
2022-08-20T16:39:05.760Z,18.02
2022-08-20T16:41:39.755Z,18.00
2022-08-20T16:44:20.568Z,20.45
2022-08-20T16:46:53.310Z,17.15
2022-08-20T16:49:22.479Z,20.88
2022-08-20T16:51:53.105Z,19.00
2022-08-20T16:54:29.572Z,17.33
2022-08-20T16:57:06.924Z,17.02
2022-08-20T16:59:34.073Z,14.93
2022-08-20T17:02:10.303Z,14.95
2022-08-20T17:04:53.308Z,13.10
2022-08-20T17:07:40.363Z,12.82
2022-08-20T17:10:20.063Z,13.05
2022-08-20T17:12:52.456Z,13.35
2022-08-20T17:15:22.900Z,13.75
2022-08-20T17:17:49.471Z,13.90
2022-08-20T17:20:20.382Z,13.10
2022-08-20T17:22:52.107Z,13.32
2022-08-20T17:28:00.455Z,11.85
2022-08-20T17:30:35.717Z,12.98
2022-08-20T17:33:19.409Z,12.65
2022-08-20T17:35:53.781Z,11.23
2022-08-20T17:38:58.021Z,11.20
2022-08-20T17:41:32.414Z,10.13
2022-08-20T17:44:05.817Z,11.80
2022-08-20T17:46:52.724Z,13.18
2022-08-20T17:49:30.710Z,11.43
2022-08-20T17:51:58.068Z,13.07
2022-08-20T17:54:32.804Z,11.10
2022-08-20T17:57:07.187Z,14.10
2022-08-20T18:00:01.604Z,11.27
2022-08-20T18:02:37.082Z,10.88
2022-08-20T18:05:10.181Z,12.45
2022-08-20T18:07:42.711Z,13.57
2022-08-20T18:10:20.924Z,14.90
2022-08-20T18:13:00.794Z,11.75
2022-08-20T18:15:45.183Z,13.13
2022-08-20T18:18:30.624Z,12.07
2022-08-20T18:21:12.575Z,10.68
2022-08-20T18:23:48.872Z,12.88
2022-08-20T18:26:34.877Z,10.82
2022-08-20T18:29:34.137Z,10.65
2022-08-20T18:32:07.530Z,11.48
2022-08-20T18:34:43.794Z,12.57
2022-08-20T18:37:14.146Z,12.10
2022-08-20T18:39:46.080Z,11.95
2022-08-20T18:42:37.291Z,11.45
2022-08-20T18:45:05.285Z,9.93
2022-08-20T18:47:35.143Z,10.50
2022-08-20T18:50:20.776Z,10.25
2022-08-20T18:53:07.006Z,10.35
2022-08-20T18:55:56.057Z,10.30
2022-08-20T18:58:34.216Z,10.27
2022-08-20T19:01:03.819Z,9.32
2022-08-20T19:03:39.406Z,10.05
2022-08-20T19:06:18.155Z,9.85
2022-08-20T19:08:56.867Z,10.98
2022-08-20T19:11:48.517Z,11.60
2022-08-20T19:14:36.884Z,9.93
2022-08-20T19:17:16.451Z,10.38
2022-08-20T19:19:43.704Z,10.85
2022-08-20T19:22:13.290Z,12.82
2022-08-20T19:24:44.379Z,10.93
2022-08-20T19:27:12.751Z,13.18
2022-08-20T19:29:49.429Z,14.07
2022-08-20T19:32:29.026Z,13.07
2022-08-20T19:35:07.523Z,12.27
2022-08-20T19:37:51.633Z,12.15
2022-08-20T19:40:28.670Z,12.82
2022-08-20T19:42:59.416Z,12.40
2022-08-20T19:45:46.633Z,12.27
2022-08-20T19:48:29.216Z,11.63
2022-08-20T19:51:08.050Z,11.60
2022-08-20T19:53:37.250Z,11.75
2022-08-20T19:56:13.313Z,11.05
2022-08-20T19:58:41.227Z,11.25
2022-08-20T20:01:20.986Z,11.35
2022-08-20T20:03:58.012Z,11.30
2022-08-20T20:06:26.964Z,13.23
2022-08-20T20:09:01.462Z,11.63
2022-08-20T20:11:35.771Z,14.00
2022-08-20T20:14:07.904Z,11.93
2022-08-20T20:16:35.934Z,11.90
2022-08-20T20:19:25.196Z,12.85
2022-08-20T20:22:04.989Z,12.60
2022-08-20T20:24:45.050Z,11.80
2022-08-20T20:27:21.589Z,11.43
2022-08-20T20:29:48.868Z,11.68
2022-08-20T20:32:20.852Z,12.13
2022-08-20T20:34:59.229Z,13.88
2022-08-20T20:37:48.834Z,11.10
2022-08-20T20:43:01.289Z,11.45
2022-08-20T20:45:37.906Z,12.52
2022-08-20T20:48:27.363Z,12.18
2022-08-20T20:50:59.663Z,12.90
2022-08-20T20:53:51.308Z,13.07
2022-08-20T20:56:42.269Z,11.10
2022-08-20T20:59:10.414Z,12.27
2022-08-20T21:01:48.811Z,10.70
2022-08-20T21:04:17.206Z,11.50
2022-08-20T21:06:44.044Z,10.82
2022-08-20T21:09:10.788Z,14.00
2022-08-20T21:11:37.457Z,12.43
2022-08-20T21:14:04.268Z,11.65
2022-08-20T21:16:30.937Z,12.00
2022-08-20T21:18:58.425Z,14.43
2022-08-20T21:21:25.300Z,11.45
2022-08-20T21:23:51.949Z,12.65
2022-08-20T21:26:18.773Z,13.10
2022-08-20T21:28:45.471Z,13.65
2022-08-20T21:31:12.261Z,12.95
2022-08-20T21:33:39.069Z,12.55
2022-08-20T21:36:06.741Z,11.93
2022-08-20T21:38:33.368Z,12.50
2022-08-20T21:40:59.958Z,12.50
2022-08-20T21:43:26.972Z,13.75
2022-08-20T21:46:01.487Z,12.35
2022-08-20T21:48:29.062Z,10.60
2022-08-20T21:50:55.644Z,11.35
2022-08-20T21:53:23.005Z,10.48
2022-08-20T21:55:49.798Z,11.73
2022-08-20T21:58:16.670Z,10.75
2022-08-20T22:00:56.927Z,10.02
2022-08-20T22:03:27.328Z,10.70
2022-08-20T22:05:55.290Z,11.25
2022-08-20T22:08:26.142Z,10.63
2022-08-20T22:10:55.233Z,10.70
2022-08-20T22:13:22.798Z,11.15
2022-08-20T22:15:49.538Z,10.90
2022-08-20T22:18:17.320Z,10.90
2022-08-20T22:20:45.590Z,10.77
2022-08-20T22:23:12.569Z,11.27
2022-08-20T22:25:40.119Z,11.73
2022-08-20T22:28:07.126Z,10.57
2022-08-20T22:30:38.390Z,11.02
2022-08-20T22:33:12.823Z,10.13
2022-08-20T22:35:45.030Z,10.52
2022-08-20T22:38:11.660Z,11.63
2022-08-20T22:40:38.262Z,9.45
2022-08-20T22:43:04.873Z,10.02
2022-08-20T22:45:32.085Z,9.60
2022-08-20T22:47:59.747Z,9.88
2022-08-20T22:50:26.389Z,9.05
2022-08-20T22:52:53.578Z,9.73
2022-08-20T22:55:20.501Z,10.45
2022-08-20T22:57:47.569Z,9.98
2022-08-20T23:00:17.370Z,10.15
2022-08-20T23:02:49.755Z,9.52
2022-08-20T23:05:22.402Z,9.77
2022-08-20T23:07:53.823Z,11.25
2022-08-20T23:10:21.235Z,9.73
2022-08-20T23:12:47.944Z,9.40
2022-08-20T23:15:15.253Z,10.23
2022-08-20T23:17:41.939Z,10.38
2022-08-20T23:20:12.236Z,11.27
2022-08-20T23:22:39.153Z,22.85
2022-08-20T23:25:08.136Z,32.45
2022-08-20T23:27:41.444Z,10.65
2022-08-20T23:30:08.837Z,8.57
2022-08-20T23:32:35.522Z,9.43
2022-08-20T23:35:02.953Z,8.52
2022-08-20T23:37:29.635Z,30.05
2022-08-20T23:39:56.330Z,42.65
2022-08-20T23:42:23.183Z,12.95
2022-08-20T23:44:49.777Z,22.48
2022-08-20T23:47:20.009Z,9.18
2022-08-20T23:49:46.786Z,13.02
2022-08-20T23:52:13.508Z,15.98
2022-08-20T23:54:40.974Z,11.23
2022-08-20T23:57:08.378Z,13.88
2022-08-20T23:59:35.902Z,9.25
